Time;durP1;ratioP1;P1;durP2;ratioP2;P2;SDS_P1;SDS_P2;PMS_P1;PMS_P2;Temp;Humidity;BMP_temperature;BMP_pressure;BME280_temperature;BME280_humidity;BME280_pressure;Samples;Min_cycle;Max_cycle;Signal;HPM_P1;HPM_P2
2022/11/22 00:01:17;;;;;;;23.53;14.23;;;-0.20;99.90;;;-141.84;86.59;18649.47;5029551;28;20230;-61
2022/11/22 00:03:45;;;;;;;23.90;14.47;;;-0.20;99.90;;;-141.84;86.64;18679.94;5031397;28;20209;-60
2022/11/22 00:06:13;;;;;;;24.40;15.73;;;-0.20;99.90;;;-141.84;86.60;18665.72;5013973;28;20206;-62
2022/11/22 00:08:41;;;;;;;22.97;15.30;;;-0.20;99.90;;;-141.84;86.52;18659.63;5013454;28;20232;-62
2022/11/22 00:11:09;;;;;;;23.73;14.77;;;-0.20;99.90;;;-141.84;86.37;18655.56;5032034;28;20970;-60
2022/11/22 00:13:39;;;;;;;23.77;14.97;;;-0.10;99.90;;;-141.84;85.87;18669.78;5033327;28;20227;-62
2022/11/22 00:16:07;;;;;;;22.40;14.80;;;-0.10;99.90;;;-141.84;85.96;18637.28;5033345;28;20237;-61
2022/11/22 00:18:35;;;;;;;20.93;13.90;;;-0.10;99.90;;;-141.84;86.18;18616.97;5033647;28;20208;-59
2022/11/22 00:21:07;;;;;;;20.63;13.03;;;-0.10;99.90;;;-141.84;86.18;18667.75;5033475;28;20234;-60
2022/11/22 00:23:36;;;;;;;22.67;14.97;;;0.00;99.90;;;-141.84;86.21;18616.97;5033122;28;20237;-60
2022/11/22 00:26:05;;;;;;;22.10;13.67;;;-0.10;99.90;;;-141.84;86.17;18671.81;5032802;28;20264;-60
2022/11/22 00:28:33;;;;;;;22.40;13.63;;;0.00;99.90;;;-141.84;85.75;18704.31;5033289;28;20232;-61
2022/11/22 00:31:03;;;;;;;21.77;14.60;;;0.00;99.90;;;-141.84;85.56;18702.28;5032795;28;20743;-59
2022/11/22 00:33:31;;;;;;;23.57;14.13;;;0.00;99.90;;;-141.84;85.10;18700.25;5033144;28;20214;-62
2022/11/22 00:35:59;;;;;;;21.30;14.20;;;0.10;99.90;;;-141.84;84.83;18673.84;5033534;28;20201;-61
2022/11/22 00:38:28;;;;;;;22.10;14.30;;;0.10;99.90;;;-141.84;84.53;18675.88;5032402;28;20226;-61
2022/11/22 00:40:56;;;;;;;22.27;14.47;;;0.10;99.90;;;-141.84;84.42;18667.75;5032703;28;20233;-61
2022/11/22 00:43:24;;;;;;;20.83;13.53;;;0.10;99.90;;;-141.84;84.43;18688.06;5032742;28;20226;-61
2022/11/22 00:45:52;;;;;;;21.03;14.40;;;0.10;99.90;;;-141.84;84.54;18690.09;5032553;28;20720;-60
2022/11/22 00:48:22;;;;;;;21.57;13.90;;;0.10;99.90;;;-141.84;84.07;18677.91;5033092;28;20238;-60
2022/11/22 00:50:50;;;;;;;20.37;13.07;;;0.20;99.90;;;-141.84;83.66;18679.94;5032567;28;20231;-61
2022/11/22 00:53:18;;;;;;;20.97;13.70;;;0.30;99.90;;;-141.84;83.74;18679.94;5032742;28;20302;-59
2022/11/22 00:55:47;;;;;;;19.70;13.20;;;0.30;99.90;;;-141.84;83.52;18692.13;5032583;28;20237;-60
2022/11/22 00:58:15;;;;;;;21.47;14.30;;;0.30;99.90;;;-141.84;83.67;18667.75;5032840;28;20231;-60
2022/11/22 01:00:44;;;;;;;21.70;14.07;;;0.20;99.90;;;-141.84;83.90;18679.94;5032318;28;20209;-60
2022/11/22 01:03:13;;;;;;;20.00;13.67;;;0.20;99.90;;;-141.84;84.30;18700.25;5033104;28;20563;-63
2022/11/22 01:05:43;;;;;;;22.00;13.70;;;0.20;99.90;;;-141.84;84.58;18673.84;5032286;28;20241;-61
2022/11/22 01:08:11;;;;;;;22.33;13.87;;;0.10;99.90;;;-141.84;85.04;18677.91;5032840;28;20243;-61
2022/11/22 01:10:39;;;;;;;20.67;13.47;;;0.10;99.90;;;-141.84;84.85;18688.06;5031889;28;20227;-59
2022/11/22 01:13:12;;;;;;;20.83;13.77;;;0.20;99.90;;;-141.84;84.30;18673.84;5032376;28;20261;-60
2022/11/22 01:15:40;;;;;;;19.90;13.80;;;0.10;99.90;;;-141.84;84.17;18690.09;5032192;28;20189;-60
2022/11/22 01:18:08;;;;;;;21.27;14.03;;;0.10;99.90;;;-141.84;83.93;18631.19;5032530;28;20199;-60
2022/11/22 01:20:36;;;;;;;22.60;14.00;;;0.10;99.90;;;-141.84;83.96;18696.19;5032368;28;20231;-62
2022/11/22 01:23:06;;;;;;;22.80;14.40;;;0.10;99.90;;;-141.84;83.98;18696.19;5031907;28;20657;-60
2022/11/22 01:25:34;;;;;;;21.77;13.40;;;0.00;99.90;;;-141.84;84.33;18659.63;5032053;28;20236;-60
2022/11/22 01:28:03;;;;;;;20.23;13.60;;;0.00;99.90;;;-141.84;84.67;18688.06;5031713;28;20632;-61
2022/11/22 01:30:31;;;;;;;21.27;13.90;;;-0.10;99.90;;;-141.84;85.04;18657.59;5031879;28;20208;-62
2022/11/22 01:32:59;;;;;;;21.73;14.53;;;-0.20;99.90;;;-141.84;85.42;18641.34;5032493;28;20208;-60
2022/11/22 01:35:27;;;;;;;20.30;13.63;;;-0.20;99.90;;;-141.84;85.93;18667.75;5031675;28;20237;-61
2022/11/22 01:37:55;;;;;;;23.23;15.03;;;-0.30;99.90;;;-141.84;86.21;18665.72;5031887;28;20230;-61
2022/11/22 01:40:25;;;;;;;22.40;14.23;;;-0.20;99.90;;;-141.84;85.97;18694.16;5031529;28;20630;-61
2022/11/22 01:42:56;;;;;;;21.83;14.17;;;-0.20;99.90;;;-141.84;86.13;18659.63;5031580;28;20236;-60
2022/11/22 01:45:47;;;;;;;22.50;14.23;;;-0.10;99.90;;;-141.84;86.47;18653.53;5032107;28;20194;-60
2022/11/22 01:48:32;;;;;;;21.47;14.63;;;-0.10;99.90;;;-141.84;86.29;18688.06;5011793;28;20652;-61
2022/11/22 01:51:07;;;;;;;24.50;15.33;;;-0.10;99.90;;;-141.84;85.83;18667.75;5030581;28;20212;-60
2022/11/22 01:53:39;;;;;;;22.37;14.03;;;-0.10;99.90;;;-141.84;85.68;18647.44;5031528;28;20232;-62
2022/11/22 01:56:13;;;;;;;21.20;13.77;;;0.00;99.90;;;-141.84;85.30;18692.13;5031483;28;20226;-60
2022/11/22 01:58:44;;;;;;;21.17;14.23;;;0.10;99.90;;;-141.84;85.33;18663.69;5031303;28;20228;-61
2022/11/22 02:01:12;;;;;;;25.33;14.10;;;0.00;99.90;;;-141.84;85.20;18647.44;5031067;28;20715;-59
2022/11/22 02:03:46;;;;;;;22.83;14.53;;;0.00;99.90;;;-141.84;85.38;18631.19;5031088;28;20200;-61
2022/11/22 02:06:16;;;;;;;24.13;14.23;;;0.00;99.90;;;-141.84;85.49;18677.91;5031449;28;20636;-61
2022/11/22 02:08:57;;;;;;;22.83;15.03;;;0.00;99.90;;;-141.84;85.79;18659.63;5031049;28;20232;-61
2022/11/22 02:11:28;;;;;;;22.33;14.53;;;-0.10;99.90;;;-141.84;85.49;18657.59;5030948;28;20239;-61
2022/11/22 02:14:03;;;;;;;25.40;15.30;;;0.00;99.90;;;-141.84;85.63;18663.69;5030971;28;20236;-61
2022/11/22 02:16:31;;;;;;;21.90;14.40;;;0.00;99.90;;;-141.84;85.58;18633.22;5030961;28;20294;-61
2022/11/22 02:19:00;;;;;;;22.03;15.07;;;0.00;99.90;;;-141.84;85.54;18667.75;5031055;28;20229;-60
2022/11/22 02:21:29;;;;;;;22.00;14.37;;;-0.10;99.90;;;-141.84;85.54;18655.56;5031478;28;20202;-61
2022/11/22 02:24:08;;;;;;;20.73;14.17;;;-0.10;99.90;;;-141.84;85.75;18692.13;5031307;28;20752;-61
2022/11/22 02:26:38;;;;;;;23.67;14.97;;;-0.20;99.90;;;-141.84;85.83;18643.38;5030728;28;20224;-61
2022/11/22 02:29:08;;;;;;;20.60;13.70;;;-0.10;99.90;;;-141.84;85.52;18655.56;5030897;28;20278;-61
2022/11/22 02:31:42;;;;;;;21.30;13.83;;;-0.10;99.90;;;-141.84;85.26;18655.56;5030735;28;20233;-62
2022/11/22 02:34:11;;;;;;;21.30;14.13;;;-0.10;99.90;;;-141.84;85.33;18673.84;5031044;28;20235;-60
2022/11/22 02:36:45;;;;;;;24.13;14.10;;;-0.20;99.90;;;-141.84;85.36;18629.16;5030603;28;20582;-61
2022/11/22 02:39:19;;;;;;;22.70;15.07;;;-0.20;99.90;;;-141.84;85.41;18647.44;5034242;28;20631;-61
2022/11/22 02:41:50;;;;;;;20.90;14.37;;;-0.20;99.90;;;-141.84;85.47;18684.00;5050228;28;20244;-61
2022/11/22 02:44:20;;;;;;;19.93;13.50;;;-0.20;99.90;;;-141.84;85.52;18684.00;5050530;28;20265;-61
2022/11/22 02:46:51;;;;;;;19.80;14.17;;;-0.20;99.90;;;-141.84;85.76;18655.56;5050587;28;20235;-61
2022/11/22 02:49:22;;;;;;;24.53;14.27;;;-0.30;99.90;;;-141.84;85.90;18675.88;5050456;28;20240;-60
2022/11/22 02:51:52;;;;;;;22.10;14.53;;;-0.30;99.90;;;-141.84;85.98;18647.44;5050347;28;20218;-61
2022/11/22 02:54:20;;;;;;;23.67;14.27;;;-0.30;99.90;;;-141.84;85.84;18675.88;5051324;28;20200;-62
2022/11/22 02:56:50;;;;;;;21.40;14.30;;;-0.20;99.90;;;-141.84;85.61;18675.88;5050178;28;20238;-61
2022/11/22 02:59:18;;;;;;;19.77;13.07;;;-0.20;99.90;;;-141.84;85.79;18661.66;5050376;28;20231;-62
2022/11/22 03:01:47;;;;;;;21.53;13.70;;;-0.20;99.90;;;-141.84;85.51;18661.66;5053631;28;20821;-60
2022/11/22 03:04:24;;;;;;;18.77;13.37;;;-0.20;99.90;;;-141.84;85.50;18647.44;5056995;28;20286;-61
2022/11/22 03:06:55;;;;;;;20.63;13.53;;;-0.10;99.90;;;-141.84;85.72;18657.59;5056882;28;20701;-61
2022/11/22 03:09:23;;;;;;;21.30;13.90;;;-0.20;99.90;;;-141.84;85.82;18657.59;5057809;28;20211;-61
2022/11/22 03:11:54;;;;;;;23.43;14.57;;;-0.10;99.90;;;-141.84;85.78;18651.50;5056801;28;20232;-61
2022/11/22 03:14:23;;;;;;;19.67;13.47;;;-0.10;99.90;;;-141.84;85.91;18639.31;5056874;28;20349;-59
2022/11/22 03:16:51;;;;;;;20.70;13.20;;;-0.10;99.90;;;-141.84;85.77;18677.91;5056572;28;20234;-59
2022/11/22 03:19:20;;;;;;;24.27;14.53;;;-0.10;99.90;;;-141.84;85.48;18647.44;5057122;28;20250;-60
2022/11/22 03:21:48;;;;;;;20.17;12.77;;;0.00;99.90;;;-141.84;85.48;18673.84;5056992;28;20197;-61
2022/11/22 03:24:18;;;;;;;21.07;13.13;;;0.00;99.90;;;-141.84;85.61;18679.94;5057506;28;20228;-61
2022/11/22 03:26:48;;;;;;;21.20;13.73;;;0.00;99.90;;;-141.84;85.23;18647.44;5056623;28;20641;-61
2022/11/22 03:29:18;;;;;;;22.40;14.23;;;0.00;99.90;;;-141.84;85.03;18661.66;5056782;28;20575;-61
2022/11/22 03:31:46;;;;;;;18.90;13.00;;;0.10;99.90;;;-141.84;85.05;18669.78;5056916;28;20243;-61
2022/11/22 03:34:15;;;;;;;17.17;12.47;;;0.10;99.90;;;-141.84;85.09;18663.69;5056873;28;20240;-60
2022/11/22 03:36:44;;;;;;;20.43;13.63;;;0.10;99.90;;;-141.84;85.31;18688.06;5056729;28;20707;-61
2022/11/22 03:39:12;;;;;;;21.77;13.83;;;0.10;99.90;;;-141.84;85.56;18665.72;5057204;28;20210;-61
2022/11/22 03:41:40;;;;;;;21.53;14.57;;;0.10;99.90;;;-141.84;85.26;18657.59;5056859;28;20235;-61
2022/11/22 03:44:08;;;;;;;19.67;13.07;;;0.10;99.90;;;-141.84;85.26;18681.97;5056527;28;20235;-60
2022/11/22 03:46:38;;;;;;;21.27;14.23;;;0.20;99.90;;;-141.84;85.08;18675.88;5056668;28;20598;-60
2022/11/22 03:49:06;;;;;;;22.40;13.80;;;0.20;99.90;;;-141.84;84.92;18700.25;5056615;28;20267;-61
2022/11/22 03:51:34;;;;;;;19.43;14.10;;;0.20;99.90;;;-141.84;84.88;18667.75;5056550;28;20560;-61
2022/11/22 03:54:02;;;;;;;20.47;13.67;;;0.30;99.90;;;-141.84;84.58;18698.22;5056836;28;20685;-60
2022/11/22 03:56:31;;;;;;;21.07;14.10;;;0.30;99.90;;;-141.84;84.69;18673.84;5056597;28;20233;-60
2022/11/22 03:58:59;;;;;;;21.40;14.67;;;0.30;99.90;;;-141.84;84.09;18696.19;5056608;28;20235;-61
2022/11/22 04:01:27;;;;;;;21.07;14.33;;;0.40;99.90;;;-141.84;84.21;18688.06;5056836;28;20273;-62
2022/11/22 04:03:57;;;;;;;20.53;13.73;;;0.30;99.90;;;-141.84;84.76;18679.94;5056577;28;20306;-61
2022/11/22 04:06:25;;;;;;;20.13;12.90;;;0.30;99.90;;;-141.84;84.78;18686.03;5056840;28;20208;-61
2022/11/22 04:08:53;;;;;;;20.00;13.77;;;0.40;99.90;;;-141.84;84.64;18696.19;5056247;28;20305;-61
2022/11/22 04:11:21;;;;;;;20.13;14.37;;;0.40;99.90;;;-141.84;84.23;18671.81;5056324;28;20279;-60
2022/11/22 04:16:35;;;;;;;22.73;14.50;;;0.40;99.90;;;-141.84;83.82;18663.69;5053112;28;20235;-61
2022/11/22 04:19:04;;;;;;;21.53;13.83;;;0.50;99.90;;;-141.84;83.42;18681.97;5053105;28;20248;-60
2022/11/22 04:21:34;;;;;;;22.33;14.30;;;0.60;99.90;;;-141.84;83.30;18700.25;5053416;28;20259;-61
2022/11/22 04:26:51;;;;;;;20.83;13.03;;;0.60;99.90;;;-141.84;83.33;18677.91;5052819;28;20233;-62
2022/11/22 04:29:22;;;;;;;19.43;13.70;;;0.60;99.90;;;-141.84;83.49;18649.47;5052844;28;20233;-60
2022/11/22 04:34:38;;;;;;;20.97;13.57;;;0.60;99.90;;;-141.84;83.57;18696.19;5052939;28;20720;-61
2022/11/22 04:37:07;;;;;;;21.20;14.60;;;0.70;99.90;;;-141.84;82.80;18700.25;5052959;28;20283;-60
2022/11/22 04:39:35;;;;;;;20.23;13.37;;;0.70;99.90;;;-141.84;82.33;18720.59;5053118;28;20216;-61
2022/11/22 04:44:49;;;;;;;23.77;15.03;;;0.80;99.90;;;-141.84;82.85;18698.22;5052292;28;20236;-61
2022/11/22 04:52:52;;;;;;;18.23;12.57;;;0.80;99.90;;;-141.84;82.53;18728.72;5052151;28;20866;-62
2022/11/22 04:52:54;;;;;;;20.17;13.00;;;0.80;99.90;;;-141.84;82.58;18706.38;5052849;28;20238;-60
2022/11/22 04:55:22;;;;;;;17.80;12.40;;;0.80;99.90;;;-141.84;83.05;18684.00;5052404;28;20224;-59
2022/11/22 04:57:50;;;;;;;19.53;13.50;;;0.80;99.90;;;-141.84;83.09;18679.94;5052637;28;20281;-60
2022/11/22 05:00:27;;;;;;;18.80;13.70;;;0.80;99.90;;;-141.84;83.49;18694.16;5053002;28;20195;-60
2022/11/22 05:02:55;;;;;;;21.50;13.90;;;0.80;99.90;;;-141.84;83.34;18718.56;5052271;28;20232;-61
2022/11/22 05:05:25;;;;;;;18.90;13.50;;;0.80;99.90;;;-141.84;83.04;18706.38;5052582;28;20386;-61
2022/11/22 05:07:54;;;;;;;20.67;13.77;;;0.80;99.90;;;-141.84;83.46;18706.38;5052564;28;20819;-59
2022/11/22 05:10:22;;;;;;;20.07;12.97;;;0.80;99.90;;;-141.84;83.80;18712.47;5052028;28;20236;-62
2022/11/22 05:12:55;;;;;;;19.90;12.93;;;0.70;99.90;;;-141.84;83.94;18690.09;5052291;28;20252;-61
2022/11/22 05:15:24;;;;;;;18.90;13.50;;;0.80;99.90;;;-141.84;84.20;18708.41;5052606;28;20641;-60
2022/11/22 05:17:52;;;;;;;20.60;14.23;;;0.70;99.90;;;-141.84;84.39;18698.22;5052439;28;20240;-61
2022/11/22 05:20:20;;;;;;;18.03;13.47;;;0.70;99.90;;;-141.84;84.19;18700.25;5051968;28;20229;-59
2022/11/22 05:25:35;;;;;;;18.30;12.93;;;0.70;99.90;;;-141.84;83.89;18692.13;5051569;28;20723;-60
2022/11/22 05:28:03;;;;;;;20.53;14.10;;;0.80;99.90;;;-141.84;83.53;18696.19;5051652;28;20729;-60
2022/11/22 05:30:31;;;;;;;21.53;14.13;;;0.80;99.90;;;-141.84;83.15;18696.19;5051904;28;20201;-61
2022/11/22 05:33:00;;;;;;;19.93;13.37;;;0.90;99.90;;;-141.84;83.40;18679.94;5051938;28;20727;-61
2022/11/22 05:35:28;;;;;;;19.93;13.87;;;0.80;99.90;;;-141.84;83.68;18710.44;5051747;28;20278;-61
2022/11/22 05:37:58;;;;;;;23.30;14.23;;;0.80;99.90;;;-141.84;83.88;18688.06;5051635;28;20236;-60
2022/11/22 05:40:27;;;;;;;21.03;13.53;;;0.80;99.90;;;-141.84;83.45;18720.59;5051172;28;20794;-60
2022/11/22 05:42:55;;;;;;;21.57;14.53;;;0.80;99.90;;;-141.84;83.14;18710.44;5051617;28;20239;-61
2022/11/22 05:45:23;;;;;;;20.03;14.20;;;0.90;99.90;;;-141.84;82.76;18692.13;5052034;28;20229;-61
2022/11/22 05:47:51;;;;;;;19.30;14.53;;;0.90;99.90;;;-141.84;82.64;18698.22;5051217;28;20237;-61
2022/11/22 05:50:19;;;;;;;18.73;13.53;;;0.90;99.90;;;-141.84;82.53;18708.41;5051376;28;20233;-61
2022/11/22 05:52:47;;;;;;;19.87;14.20;;;0.90;99.90;;;-141.84;82.82;18692.13;5051294;28;20312;-61
2022/11/22 05:55:17;;;;;;;20.37;14.37;;;0.80;99.90;;;-141.84;82.78;18706.38;5051063;28;20244;-60
2022/11/22 05:57:45;;;;;;;19.97;13.50;;;0.90;99.90;;;-141.84;82.91;18708.41;5051111;28;20205;-61
2022/11/22 06:00:14;;;;;;;23.17;14.30;;;0.90;99.90;;;-141.84;82.72;18681.97;5051545;28;20208;-61
2022/11/22 06:02:42;;;;;;;20.57;13.83;;;0.80;99.90;;;-141.84;82.96;18722.63;5051207;28;20237;-61
2022/11/22 06:05:11;;;;;;;21.47;14.60;;;0.90;99.90;;;-141.84;82.67;18708.41;5050749;28;20717;-61
2022/11/22 06:07:39;;;;;;;21.30;14.50;;;0.90;99.90;;;-141.84;82.37;18736.84;5051018;28;20236;-60
2022/11/22 06:10:09;;;;;;;21.03;14.03;;;0.90;99.90;;;-141.84;82.28;18700.25;5050539;28;20221;-60
2022/11/22 06:12:38;;;;;;;22.57;14.97;;;0.80;99.90;;;-141.84;82.14;18722.63;5050845;28;20584;-60
2022/11/22 06:15:08;;;;;;;20.27;13.53;;;0.90;99.90;;;-141.84;82.26;18730.75;5051442;28;20220;-59
2022/11/22 06:17:36;;;;;;;21.70;13.53;;;0.80;99.90;;;-141.84;82.08;18692.13;5051004;28;20798;-61
2022/11/22 06:20:05;;;;;;;20.53;14.67;;;0.90;99.90;;;-141.84;81.95;18710.44;5050784;28;20239;-60
2022/11/22 06:22:34;;;;;;;17.77;12.63;;;0.90;99.90;;;-141.84;81.93;18696.19;5050926;28;20301;-60
2022/11/22 06:25:02;;;;;;;20.23;14.47;;;0.80;99.90;;;-141.84;82.21;18714.50;5050580;28;20283;-61
2022/11/22 06:27:30;;;;;;;20.93;15.17;;;0.80;99.90;;;-141.84;82.70;18696.19;5051215;28;20220;-60
2022/11/22 06:30:00;;;;;;;21.03;14.03;;;0.80;99.90;;;-141.84;83.19;18716.53;5030700;28;20221;-62
2022/11/22 06:32:28;;;;;;;21.30;14.37;;;0.80;99.90;;;-141.84;83.60;18669.78;5031266;28;20221;-61
2022/11/22 06:34:56;;;;;;;20.40;14.53;;;0.80;99.90;;;-141.84;83.30;18712.47;5030544;28;20225;-60
2022/11/22 06:37:24;;;;;;;20.17;13.70;;;0.80;99.90;;;-141.84;82.61;18712.47;5030316;28;20233;-61
2022/11/22 06:39:52;;;;;;;22.87;14.50;;;0.80;99.90;;;-141.84;82.99;18749.03;5030473;28;20581;-60
2022/11/22 06:42:20;;;;;;;22.43;14.20;;;0.80;99.90;;;-141.84;82.61;18716.53;5030934;28;20206;-60
2022/11/22 06:44:49;;;;;;;19.90;14.03;;;0.80;99.90;;;-141.84;82.82;18665.72;5030263;28;20221;-60
2022/11/22 06:47:18;;;;;;;20.83;14.03;;;0.80;99.90;;;-141.84;83.13;18686.03;5030154;28;20296;-60
2022/11/22 06:49:46;;;;;;;20.07;13.60;;;0.70;99.90;;;-141.84;83.03;18728.72;5030733;28;20232;-60
2022/11/22 06:52:14;;;;;;;19.13;14.10;;;0.80;99.90;;;-141.84;83.17;18694.16;5030432;28;20234;-60
2022/11/22 06:54:42;;;;;;;22.93;14.30;;;0.70;99.90;;;-141.84;83.37;18706.38;5030609;28;20250;-61
2022/11/22 06:57:13;;;;;;;22.77;15.40;;;0.70;99.90;;;-141.84;83.62;18704.31;5030608;28;20206;-61
2022/11/22 06:59:41;;;;;;;21.73;14.43;;;0.70;99.90;;;-141.84;83.98;18706.38;5030571;28;20623;-60
2022/11/22 07:02:12;;;;;;;20.00;14.10;;;0.70;99.90;;;-141.84;84.16;18679.94;5030196;28;20243;-60
2022/11/22 07:04:41;;;;;;;21.70;14.13;;;0.70;99.90;;;-141.84;83.98;18690.09;5029521;28;20237;-60
2022/11/22 07:07:29;;;;;;;20.33;14.43;;;0.60;99.90;;;-141.84;83.84;18692.13;5029390;28;20306;-60
2022/11/22 07:09:58;;;;;;;20.93;14.60;;;0.60;99.90;;;-141.84;83.86;18716.53;5030472;28;20232;-60
2022/11/22 07:12:26;;;;;;;19.47;13.97;;;0.60;99.90;;;-141.84;83.45;18696.19;5029099;28;20206;-60
2022/11/22 07:14:54;;;;;;;20.60;14.50;;;0.70;99.90;;;-141.84;83.35;18704.31;5029736;28;20284;-60
2022/11/22 07:17:22;;;;;;;21.63;14.67;;;0.70;99.90;;;-141.84;82.65;18704.31;5030283;28;20271;-60
2022/11/22 07:19:52;;;;;;;23.30;15.80;;;0.80;99.90;;;-141.84;82.67;18704.31;5030017;28;20230;-60
2022/11/22 07:22:20;;;;;;;21.03;15.10;;;0.80;99.90;;;-141.84;82.68;18712.47;5030332;28;20229;-61
2022/11/22 07:24:48;;;;;;;18.70;14.10;;;0.80;99.90;;;-141.84;82.60;18708.41;5030215;28;20295;-60
2022/11/22 07:27:16;;;;;;;23.23;14.47;;;0.80;99.90;;;-141.84;82.84;18718.56;5029964;28;20271;-60
2022/11/22 07:29:44;;;;;;;20.57;14.97;;;0.80;99.90;;;-141.84;83.09;18690.09;5029929;28;20233;-62
2022/11/22 07:32:12;;;;;;;21.50;14.23;;;0.80;99.90;;;-141.84;82.83;18714.50;5029978;28;20283;-62
2022/11/22 07:34:40;;;;;;;24.70;14.90;;;0.90;99.90;;;-141.84;82.45;18738.88;5030307;28;20268;-60
2022/11/22 07:37:09;;;;;;;23.83;14.67;;;0.90;99.90;;;-141.84;82.23;18696.19;5030270;28;20236;-61
2022/11/22 07:39:37;;;;;;;20.47;14.53;;;1.00;99.90;;;-141.84;82.29;18698.22;5029966;28;20673;-61
2022/11/22 07:42:06;;;;;;;22.63;14.50;;;1.00;99.90;;;-141.84;81.93;18708.41;5030267;28;20206;-61
2022/11/22 07:44:34;;;;;;;19.03;14.03;;;1.00;99.90;;;-141.84;82.08;18722.63;5030004;28;20230;-61
2022/11/22 07:47:02;;;;;;;22.20;14.23;;;1.10;99.90;;;-141.84;81.50;18724.66;5029933;28;20303;-60
2022/11/22 07:49:30;;;;;;;21.17;14.23;;;1.10;99.90;;;-141.84;82.09;18730.75;5032795;28;20229;-60
2022/11/22 07:51:58;;;;;;;20.00;14.73;;;1.10;99.90;;;-141.84;82.09;18734.81;5033697;28;20305;-61
2022/11/22 07:54:28;;;;;;;21.13;14.23;;;1.10;99.90;;;-141.84;82.38;18716.53;5034154;28;20213;-62
2022/11/22 07:56:56;;;;;;;20.83;14.50;;;1.20;99.90;;;-141.84;82.14;18716.53;5033296;28;20217;-60
2022/11/22 07:59:24;;;;;;;21.60;14.30;;;1.20;99.90;;;-141.84;82.17;18724.66;5033329;28;20233;-60
2022/11/22 08:01:52;;;;;;;22.07;14.73;;;1.30;99.90;;;-141.84;82.41;18728.72;5033264;28;20281;-60
2022/11/22 08:04:20;;;;;;;22.63;15.17;;;1.30;99.90;;;-141.84;81.86;18767.31;5033416;28;20327;-60
2022/11/22 08:06:48;;;;;;;19.70;14.57;;;1.40;99.90;;;-141.84;81.35;18728.72;5033274;28;20217;-60
2022/11/22 08:09:16;;;;;;;20.50;14.13;;;1.60;99.90;;;-141.84;81.33;18740.91;5033982;28;20206;-60
2022/11/22 08:11:46;;;;;;;23.00;14.87;;;1.60;99.90;;;-141.84;81.36;18747.00;5033137;28;20280;-61
2022/11/22 08:14:14;;;;;;;20.93;14.80;;;1.70;99.90;;;-141.84;81.47;18767.31;5033017;28;20724;-61
2022/11/22 08:16:42;;;;;;;20.27;14.40;;;1.80;99.90;;;-141.84;81.52;18769.34;5033341;28;20284;-61
2022/11/22 08:19:14;;;;;;;20.87;13.97;;;2.00;99.90;;;-141.84;81.09;18757.16;5033292;28;20226;-60
2022/11/22 08:21:42;;;;;;;23.87;15.00;;;2.20;99.90;;;-141.84;80.15;18769.34;5033145;28;20194;-61
2022/11/22 08:24:11;;;;;;;19.37;13.70;;;2.20;99.90;;;-141.84;78.81;18787.63;5033659;28;20253;-60
2022/11/22 08:26:39;;;;;;;17.90;13.63;;;2.40;99.90;;;-141.84;77.77;18816.06;5032588;28;20238;-60
2022/11/22 08:29:12;;;;;;;17.40;13.63;;;2.50;99.90;;;-141.84;77.65;18791.69;5032709;28;20780;-61
2022/11/22 08:31:41;;;;;;;18.63;13.37;;;2.50;99.90;;;-141.84;77.60;18814.03;5033009;28;20230;-62
2022/11/22 08:34:09;;;;;;;16.73;12.70;;;2.60;99.90;;;-141.84;77.68;18797.78;5032870;28;20277;-60
2022/11/22 08:36:38;;;;;;;18.37;12.77;;;2.60;99.90;;;-141.84;77.07;18822.19;5032720;28;20663;-61
2022/11/22 08:39:06;;;;;;;20.20;14.17;;;2.80;99.90;;;-141.84;77.17;18803.88;5033193;28;20206;-61
2022/11/22 08:41:34;;;;;;;17.87;12.47;;;2.70;99.90;;;-141.84;77.40;18761.22;5032612;28;20231;-63
2022/11/22 08:44:02;;;;;;;16.63;11.53;;;2.70;99.90;;;-141.84;77.47;18799.81;5032413;28;20224;-61
2022/11/22 08:46:32;;;;;;;17.93;12.60;;;2.70;99.90;;;-141.84;76.44;18816.06;5032552;28;20282;-59
2022/11/22 08:49:02;;;;;;;17.00;12.17;;;2.80;99.90;;;-141.84;75.91;18816.06;5032608;28;20308;-60
2022/11/22 08:51:35;;;;;;;17.83;12.90;;;2.70;99.90;;;-141.84;76.32;18809.97;5032950;28;20250;-62
2022/11/22 08:54:03;;;;;;;17.10;12.60;;;2.80;99.90;;;-141.84;76.07;18826.25;5032736;28;20250;-60
2022/11/22 08:56:32;;;;;;;17.40;12.23;;;2.80;99.90;;;-141.84;75.70;18838.44;5032329;28;20260;-61
2022/11/22 08:59:00;;;;;;;18.10;13.23;;;2.80;99.90;;;-141.84;75.84;18807.94;5031663;28;20233;-60
2022/11/22 09:01:28;;;;;;;18.30;12.73;;;2.80;99.90;;;-141.84;75.72;18828.28;5032757;28;20310;-60
2022/11/22 09:03:57;;;;;;;18.57;13.07;;;2.90;99.90;;;-141.84;76.12;18848.59;5032426;28;20220;-63
2022/11/22 09:06:26;;;;;;;18.30;12.70;;;2.90;99.90;;;-141.84;75.83;18816.06;5032679;28;20225;-62
2022/11/22 09:09:14;;;;;;;15.43;11.90;;;3.00;99.90;;;-141.84;74.71;18870.94;5032042;28;20318;-62
2022/11/22 09:12:02;;;;;;;15.23;11.80;;;3.10;99.90;;;-141.84;74.15;18872.97;5032123;28;20652;-60
2022/11/22 09:14:30;;;;;;;16.40;12.37;;;3.20;99.90;;;-141.84;74.27;18834.38;5031952;28;20272;-61
2022/11/22 09:16:58;;;;;;;16.73;12.00;;;3.20;99.90;;;-141.84;73.43;18868.91;5032061;28;20233;-60
2022/11/22 09:19:27;;;;;;;15.60;12.13;;;3.20;99.90;;;-141.84;73.48;18903.44;5031790;28;20231;-60
2022/11/22 09:21:55;;;;;;;16.33;12.20;;;3.30;99.90;;;-141.84;73.94;18899.38;5031868;28;20704;-59
2022/11/22 09:24:23;;;;;;;15.47;11.93;;;3.30;99.90;;;-141.84;73.07;18846.56;5032378;28;20211;-64
2022/11/22 09:26:52;;;;;;;14.87;11.30;;;3.40;99.90;;;-141.84;73.43;18893.28;5031788;28;20224;-61
2022/11/22 09:29:20;;;;;;;15.40;11.93;;;3.50;99.90;;;-141.84;73.63;18866.88;5031716;28;20306;-60
2022/11/22 09:31:48;;;;;;;15.97;11.97;;;3.50;99.90;;;-141.84;73.41;18889.22;5031841;28;20226;-59
2022/11/22 09:34:16;;;;;;;17.40;12.60;;;3.60;99.90;;;-141.84;72.90;18897.34;5031775;28;20729;-61
2022/11/22 09:36:45;;;;;;;16.00;12.17;;;3.70;99.90;;;-141.84;72.89;18891.25;5032090;28;20206;-60
2022/11/22 09:39:13;;;;;;;19.13;12.57;;;3.90;99.90;;;-141.84;72.67;18883.13;5032087;28;20283;-63
2022/11/22 09:42:32;;;;;;;15.57;11.57;;;3.80;99.90;;;-141.84;72.50;18891.25;5031411;28;20233;-60
2022/11/22 09:45:26;;;;;;;17.10;11.57;;;3.80;99.90;;;-141.84;71.90;18872.97;5031650;28;20221;-62
2022/11/22 09:48:10;;;;;;;16.23;11.27;;;3.80;99.90;;;-141.84;72.23;18927.84;5031251;28;20272;-62
2022/11/22 09:50:48;;;;;;;14.77;10.90;;;3.90;99.90;;;-141.84;72.55;18909.53;5031588;28;20301;-60
2022/11/22 09:53:26;;;;;;;15.80;11.90;;;3.90;99.90;;;-141.84;72.94;18911.56;5031257;28;20233;-61
2022/11/22 09:56:00;;;;;;;14.90;11.60;;;3.90;99.90;;;-141.84;73.34;18911.56;5031319;28;20229;-59
2022/11/22 09:58:33;;;;;;;15.57;11.47;;;3.90;99.90;;;-141.84;73.41;18927.84;5031027;28;20225;-62
2022/11/22 10:01:10;;;;;;;16.07;11.50;;;4.00;99.90;;;-141.84;73.64;18923.78;5031167;28;20648;-61
2022/11/22 10:03:46;;;;;;;13.97;11.73;;;;;;;-141.84;73.59;18913.59;5031173;28;20698;-60
2022/11/22 10:06:22;;;;;;;15.53;11.87;;;3.90;99.90;;;-141.84;73.20;18915.63;5031542;28;20256;-61
2022/11/22 10:09:10;;;;;;;16.10;11.90;;;4.00;99.90;;;-141.84;72.11;18931.91;5031032;28;20244;-61
2022/11/22 10:11:46;;;;;;;15.93;11.53;;;4.10;99.90;;;-141.84;72.00;18927.84;5030185;28;20770;-60
2022/11/22 10:14:31;;;;;;;14.50;11.47;;;4.20;99.90;;;-141.84;72.45;18954.25;5030754;28;20720;-61
2022/11/22 10:17:17;;;;;;;18.40;12.60;;;4.10;99.90;;;-141.84;72.76;18929.88;5030742;28;20233;-61
2022/11/22 10:19:58;;;;;;;18.30;13.13;;;4.10;99.90;;;-141.84;71.60;18940.03;5030694;28;20237;-59
2022/11/22 10:22:30;;;;;;;18.40;12.97;;;4.30;99.90;;;-141.84;71.91;18915.63;5031074;28;20229;-61
2022/11/22 10:25:03;;;;;;;15.43;11.83;;;;;;;-141.84;71.33;18954.25;5031005;28;20225;-61
2022/11/22 10:27:33;;;;;;;15.23;12.13;;;4.40;99.90;;;-141.84;71.53;18946.13;5031429;28;20214;-61